Weather at Kymi Airfield

Public forecast

Using degrees Celsius for public forecast. Weather courtesy of forecast.io.

Closest aviation weather report (METAR) to Kymi Airfield

Closest report is Utti Air Base, 19.6 nm (36.2 km) N.

2024/06/20 20:50 (retrieved 25 minutes ago)

EFUT 202050Z AUTO 26005KT CAVOK 13/06 Q1007

Closest aviation forecast (TAF) to Kymi Airfield

Closest forecast is Helsinki Vantaa Airport, 59.2 nm (109.7 km) WSW.

2024/06/20 21:42 (retrieved 0 seconds ago)

TAF TAF EFHK 202023Z 2021/2121 22007KT CAVOK BECMG 2106/2109 29012KT PROB40 TEMPO 2110/2114 30015G28KT